createdAt,value
2019-04-11T00:00:55.981Z,78.87
2019-04-11T00:01:56.328Z,78.77
2019-04-11T00:02:55.940Z,79.34
2019-04-11T00:03:55.915Z,79.34
2019-04-11T00:04:56.658Z,79.53
2019-04-11T00:05:55.988Z,79.72
2019-04-11T00:06:56.131Z,79.91
2019-04-11T00:07:58.065Z,79.53
2019-04-11T00:08:56.463Z,80.10
2019-04-11T00:09:56.763Z,80.00
2019-04-11T00:10:55.766Z,80.06
2019-04-11T00:11:55.742Z,80.48
2019-04-11T00:12:57.055Z,80.15
2019-04-11T00:13:55.790Z,80.72
2019-04-11T00:14:56.017Z,81.10
2019-04-11T00:15:55.651Z,80.82
2019-04-11T00:16:55.636Z,80.72
2019-04-11T00:17:56.497Z,80.72
2019-04-11T00:18:56.833Z,81.48
2019-04-11T00:19:55.825Z,81.48
2019-04-11T00:20:56.171Z,81.10
2019-04-11T00:22:54.109Z,81.86
2019-04-11T00:23:53.045Z,81.38
2019-04-11T00:24:53.396Z,81.48
2019-04-11T00:25:53.003Z,82.05
2019-04-11T00:26:52.977Z,81.86
2019-04-11T00:27:53.147Z,81.95
2019-04-11T00:30:05.971Z,82.52
2019-04-11T00:31:06.361Z,82.62
2019-04-11T00:32:08.789Z,83.28
2019-04-11T00:33:05.758Z,83.18
2019-04-11T00:34:05.411Z,83.56
2019-04-11T00:35:05.391Z,83.47
2019-04-11T00:36:06.303Z,83.28
2019-04-11T00:37:05.352Z,84.04
2019-04-11T00:38:05.602Z,84.04
2019-04-11T00:39:05.589Z,83.85
2019-04-11T00:40:05.289Z,83.00
2019-04-11T00:41:05.859Z,83.94
2019-04-11T00:42:06.167Z,83.85
2019-04-11T00:43:05.274Z,83.75
2019-04-11T00:44:06.269Z,83.75
2019-04-11T00:45:05.417Z,83.75
2019-04-11T00:46:48.773Z,83.75
2019-04-11T00:47:47.651Z,83.66
2019-04-11T00:48:48.119Z,83.37
2019-04-11T00:49:48.472Z,83.85
2019-04-11T00:50:47.689Z,83.56
2019-04-11T00:51:47.790Z,84.13
2019-04-11T00:52:47.635Z,84.13
2019-04-11T00:53:47.518Z,84.32
2019-04-11T00:54:47.496Z,84.04
2019-04-11T00:55:48.117Z,84.32
2019-04-11T00:56:48.439Z,84.70
2019-04-11T00:57:47.702Z,84.51
2019-04-11T00:58:47.407Z,84.04
2019-04-11T00:59:47.385Z,84.23
2019-04-11T01:00:47.365Z,84.23
2019-04-11T01:01:47.341Z,84.42
2019-04-11T01:02:47.447Z,84.80
2019-04-11T01:03:47.526Z,84.42
2019-04-11T01:04:47.275Z,84.23
2019-04-11T01:05:47.837Z,84.32
2019-04-11T01:06:47.230Z,84.89
2019-04-11T01:07:47.205Z,84.99
2019-04-11T01:08:48.179Z,85.27
2019-04-11T01:09:47.162Z,85.36
2019-04-11T01:10:47.814Z,85.36
2019-04-11T01:11:47.912Z,84.89
2019-04-11T01:12:47.099Z,85.08
2019-04-11T01:13:51.807Z,85.46
2019-04-11T01:14:47.054Z,85.74
2019-04-11T01:15:47.030Z,86.03
2019-04-11T01:16:47.007Z,85.46
2019-04-11T01:17:47.538Z,85.08
2019-04-11T01:18:46.960Z,85.27
2019-04-11T01:19:46.941Z,85.55
2019-04-11T01:20:48.012Z,85.84
2019-04-11T01:21:46.898Z,85.46
2019-04-11T01:22:46.876Z,85.55
2019-04-11T01:23:47.068Z,85.93
2019-04-11T01:24:46.831Z,86.03
2019-04-11T01:25:46.809Z,85.55
2019-04-11T01:26:47.616Z,86.31
2019-04-11T01:27:47.970Z,86.22
2019-04-11T01:28:46.997Z,86.12
2019-04-11T01:29:47.376Z,85.36
2019-04-11T01:30:47.212Z,85.46
2019-04-11T01:31:46.676Z,85.46
2019-04-11T01:32:46.650Z,86.22
2019-04-11T01:33:46.632Z,86.03
2019-04-11T01:34:46.655Z,86.03
2019-04-11T01:35:47.761Z,86.22
2019-04-11T01:36:46.968Z,86.50
2019-04-11T01:37:46.545Z,86.50
2019-04-11T01:38:46.522Z,86.31
2019-04-11T01:39:47.410Z,86.31
2019-04-11T01:40:46.477Z,87.07
2019-04-11T01:41:46.740Z,86.69
2019-04-11T01:42:47.141Z,86.88
2019-04-11T01:43:55.246Z,86.98
2019-04-11T01:44:47.435Z,87.07
2019-04-11T01:45:46.447Z,86.69
2019-04-11T01:46:46.518Z,87.07
2019-04-11T01:47:46.925Z,86.60
2019-04-11T01:48:46.299Z,86.69
2019-04-11T01:49:46.275Z,86.69
2019-04-11T01:50:47.259Z,86.69
2019-04-11T01:51:46.230Z,87.16
2019-04-11T01:52:46.678Z,86.98
2019-04-11T01:53:46.918Z,86.60
2019-04-11T01:54:46.168Z,86.98
2019-04-11T01:55:46.146Z,86.31
2019-04-11T01:56:46.121Z,86.98
2019-04-11T01:57:46.492Z,86.79
2019-04-11T01:58:46.864Z,86.98
2019-04-11T01:59:46.056Z,86.88
2019-04-11T02:00:46.224Z,86.79
2019-04-11T02:01:47.212Z,86.79
2019-04-11T02:02:46.508Z,86.88
2019-04-11T02:03:45.961Z,86.88
2019-04-11T02:04:46.080Z,86.79
2019-04-11T02:05:45.911Z,86.88
2019-04-11T02:06:45.982Z,86.69
2019-04-11T02:07:46.888Z,86.69
2019-04-11T02:08:45.851Z,86.88
2019-04-11T02:09:46.366Z,86.79
2019-04-11T02:10:45.805Z,86.69
2019-04-11T02:11:45.848Z,86.60
2019-04-11T02:12:45.760Z,86.79
2019-04-11T02:13:45.738Z,87.07
2019-04-11T02:14:45.950Z,86.98
2019-04-11T02:15:46.285Z,86.69
2019-04-11T02:16:45.670Z,86.79
2019-04-11T02:17:46.742Z,86.88
2019-04-11T02:18:45.772Z,86.69
2019-04-11T02:19:45.603Z,86.98
2019-04-11T02:20:45.578Z,87.07
2019-04-11T02:21:46.236Z,86.93
2019-04-11T02:22:46.535Z,86.79
2019-04-11T02:23:45.573Z,87.02
2019-04-11T02:24:45.489Z,87.16
2019-04-11T02:25:45.464Z,87.12
2019-04-11T02:26:46.853Z,86.93
2019-04-11T02:27:46.285Z,87.31
2019-04-11T02:28:45.399Z,86.69
2019-04-11T02:29:45.375Z,86.93
2019-04-11T02:30:46.448Z,87.31
2019-04-11T02:31:46.748Z,87.50
2019-04-11T02:32:47.360Z,87.21
2019-04-11T02:33:46.893Z,87.50
2019-04-11T02:34:46.198Z,87.31
2019-04-11T02:35:47.099Z,87.69
2019-04-11T02:36:45.621Z,87.69
2019-04-11T02:37:47.644Z,87.69
2019-04-11T02:38:48.852Z,87.78
2019-04-11T02:39:45.147Z,87.50
2019-04-11T02:40:45.969Z,87.59
2019-04-11T02:41:46.779Z,88.07
2019-04-11T02:42:45.613Z,88.07
2019-04-11T02:43:46.704Z,88.17
2019-04-11T02:44:59.894Z,88.64
2019-04-11T02:45:56.969Z,88.64
2019-04-11T02:47:48.292Z,88.73
2019-04-11T02:48:45.476Z,89.06
2019-04-11T02:49:45.619Z,89.25
2019-04-11T02:50:45.890Z,89.63
2019-04-11T02:51:45.083Z,89.63
2019-04-11T02:52:44.848Z,90.01
2019-04-11T02:53:45.123Z,89.82
2019-04-11T02:54:45.245Z,89.25
2019-04-11T02:55:46.630Z,89.16
2019-04-11T02:56:45.560Z,89.82
2019-04-11T02:57:45.999Z,89.92
2019-04-11T02:58:46.333Z,89.92
2019-04-11T02:59:46.758Z,89.35
2019-04-11T03:00:45.488Z,89.44
2019-04-11T03:01:46.340Z,89.63
2019-04-11T03:02:44.648Z,89.63
2019-04-11T03:03:45.545Z,89.92
2019-04-11T03:04:46.022Z,89.63
2019-04-11T03:05:46.338Z,89.44
2019-04-11T03:06:45.750Z,90.20
2019-04-11T03:07:45.827Z,90.11
2019-04-11T03:08:44.558Z,89.63
2019-04-11T03:09:46.269Z,89.73
2019-04-11T03:10:45.375Z,90.20
2019-04-11T03:11:45.072Z,90.11
2019-04-11T03:12:46.445Z,90.01
2019-04-11T03:13:46.082Z,89.44
2019-04-11T03:15:01.942Z,89.92
2019-04-11T03:16:03.520Z,90.20
2019-04-11T03:16:56.639Z,91.05
2019-04-11T03:17:46.283Z,90.58
2019-04-11T03:18:59.456Z,90.67
2019-04-11T03:19:59.255Z,90.58
2019-04-11T03:20:50.401Z,90.58
2019-04-11T03:21:46.710Z,90.58
2019-04-11T03:22:45.326Z,90.39
2019-04-11T03:23:44.262Z,90.58
2019-04-11T03:24:44.114Z,91.15
2019-04-11T03:25:44.864Z,91.24
2019-04-11T03:26:45.772Z,91.34
2019-04-11T03:27:45.248Z,90.77
2019-04-11T03:28:47.531Z,91.24
2019-04-11T03:29:45.222Z,91.34
2019-04-11T03:31:07.155Z,92.00
2019-04-11T03:32:34.120Z,91.72
2019-04-11T03:34:27.601Z,91.43
2019-04-11T03:35:51.057Z,91.43
2019-04-11T03:36:37.439Z,91.86
2019-04-11T03:37:18.963Z,91.77
2019-04-11T03:38:09.133Z,92.10
2019-04-11T03:39:08.898Z,92.43
2019-04-11T03:40:07.908Z,92.24
2019-04-11T03:41:02.450Z,92.33
2019-04-11T03:41:59.790Z,92.80
2019-04-11T03:42:59.432Z,92.99
2019-04-11T03:43:55.708Z,92.99
2019-04-11T03:44:47.775Z,92.71
2019-04-11T03:46:05.154Z,92.71
2019-04-11T03:47:01.320Z,92.61
2019-04-11T03:47:57.634Z,92.61
2019-04-11T03:48:55.667Z,93.28
2019-04-11T03:49:51.060Z,93.66
2019-04-11T03:50:44.859Z,93.94
2019-04-11T03:51:45.397Z,93.47
2019-04-11T03:52:44.750Z,93.66
2019-04-11T03:53:44.871Z,93.37
2019-04-11T03:54:43.398Z,93.56
2019-04-11T03:55:43.581Z,94.04
2019-04-11T03:56:43.495Z,93.85
2019-04-11T03:57:43.327Z,94.04
2019-04-11T03:58:43.893Z,94.32
2019-04-11T03:59:43.780Z,94.23
2019-04-11T04:00:44.566Z,94.23
2019-04-11T04:01:44.410Z,94.51
2019-04-11T04:02:44.371Z,94.79
2019-04-11T04:03:44.640Z,94.70
2019-04-11T04:04:43.654Z,94.51
2019-04-11T04:05:44.294Z,94.32
2019-04-11T04:06:43.460Z,94.51
2019-04-11T04:07:44.395Z,95.64
2019-04-11T04:08:44.490Z,95.26
2019-04-11T04:09:43.978Z,94.98
2019-04-11T04:10:43.662Z,95.64
2019-04-11T04:11:44.829Z,95.45
2019-04-11T04:12:43.390Z,95.26
2019-04-11T04:13:42.967Z,95.55
2019-04-11T04:14:44.781Z,96.40
2019-04-11T04:15:55.590Z,96.21
2019-04-11T04:16:47.877Z,96.21
2019-04-11T04:17:43.378Z,96.69
2019-04-11T04:18:43.742Z,97.06
2019-04-11T04:19:43.734Z,96.88
2019-04-11T04:20:43.902Z,96.78
2019-04-11T04:21:42.988Z,96.69
2019-04-11T04:22:44.091Z,96.59
2019-04-11T04:23:43.228Z,96.59
2019-04-11T04:24:44.595Z,96.40
2019-04-11T04:25:45.060Z,96.59
2019-04-11T04:26:43.155Z,96.97
2019-04-11T04:27:43.011Z,97.34
2019-04-11T04:28:42.997Z,97.44
2019-04-11T04:29:46.735Z,97.53
2019-04-11T04:30:44.329Z,97.53
2019-04-11T04:31:42.561Z,96.69
2019-04-11T04:32:42.936Z,97.53
2019-04-11T04:33:42.953Z,97.44
2019-04-11T04:34:44.139Z,97.34
2019-04-11T04:35:44.514Z,97.16
2019-04-11T04:36:42.476Z,96.97
2019-04-11T04:37:43.334Z,97.25
2019-04-11T04:38:44.365Z,97.91
2019-04-11T04:39:43.632Z,97.25
2019-04-11T04:40:58.538Z,97.63
2019-04-11T04:41:49.319Z,97.63
2019-04-11T04:42:46.679Z,97.16
2019-04-11T04:43:44.144Z,97.44
2019-04-11T04:44:42.905Z,97.44
2019-04-11T04:45:58.275Z,97.53
2019-04-11T04:46:55.827Z,97.82
2019-04-11T04:47:47.856Z,97.91
2019-04-11T04:48:43.215Z,97.91
2019-04-11T04:49:43.514Z,97.82
2019-04-11T04:50:42.299Z,97.82
2019-04-11T04:51:43.652Z,97.44
2019-04-11T04:52:42.874Z,97.91
2019-04-11T04:53:43.039Z,97.82
2019-04-11T04:54:41.979Z,98.20
2019-04-11T04:55:43.402Z,98.20
2019-04-11T04:56:43.229Z,98.58
2019-04-11T04:57:42.958Z,98.58
2019-04-11T04:58:42.181Z,98.86
2019-04-11T04:59:42.534Z,97.91
2019-04-11T05:00:41.837Z,98.20
2019-04-11T05:01:43.803Z,97.91
2019-04-11T05:02:42.623Z,97.91
2019-04-11T05:03:42.396Z,98.77
2019-04-11T05:04:43.469Z,98.10
2019-04-11T05:05:42.404Z,98.86
2019-04-11T05:06:44.809Z,98.48
2019-04-11T05:07:44.322Z,98.67
2019-04-11T05:08:42.974Z,98.48
2019-04-11T05:09:42.603Z,98.58
2019-04-11T05:10:41.612Z,99.05
2019-04-11T05:11:42.374Z,98.77
2019-04-11T05:12:41.770Z,99.05
2019-04-11T05:13:44.817Z,99.05
2019-04-11T05:14:41.509Z,99.05
2019-04-11T05:15:42.167Z,98.86
2019-04-11T05:16:41.812Z,98.77
2019-04-11T05:17:43.574Z,98.96
2019-04-11T05:18:41.987Z,99.05
2019-04-11T05:19:42.396Z,99.05
2019-04-11T05:20:41.360Z,98.67
2019-04-11T05:21:41.484Z,98.77
2019-04-11T05:22:41.615Z,98.77
2019-04-11T05:23:41.747Z,98.39
2019-04-11T05:24:41.277Z,98.20
2019-04-11T05:25:42.453Z,99.05
2019-04-11T05:26:41.799Z,99.05
2019-04-11T05:27:41.923Z,98.96
2019-04-11T05:28:41.170Z,98.67
2019-04-11T05:29:41.760Z,99.05
2019-04-11T05:30:41.908Z,98.39
2019-04-11T05:31:41.099Z,98.10
2019-04-11T05:32:41.748Z,98.39
2019-04-11T05:33:41.306Z,98.48
2019-04-11T05:34:41.428Z,98.86
2019-04-11T05:35:41.721Z,98.48
2019-04-11T05:36:40.989Z,98.48
2019-04-11T05:37:40.958Z,98.58
2019-04-11T05:38:42.137Z,98.67
2019-04-11T05:39:42.343Z,98.82
2019-04-11T05:40:41.894Z,97.77
2019-04-11T05:41:44.761Z,97.87
2019-04-11T05:42:41.693Z,97.87
2019-04-11T05:43:41.771Z,97.87
2019-04-11T05:44:41.752Z,97.96
2019-04-11T05:45:40.769Z,98.34
2019-04-11T05:46:49.875Z,97.68
2019-04-11T05:47:40.722Z,97.68
2019-04-11T05:48:41.139Z,97.68
2019-04-11T05:49:42.060Z,97.96
2019-04-11T05:50:44.769Z,97.39
2019-04-11T05:51:44.638Z,97.58
2019-04-11T05:52:40.600Z,97.49
2019-04-11T05:53:41.633Z,97.49
2019-04-11T05:54:41.833Z,97.02
2019-04-11T05:55:43.337Z,96.83
2019-04-11T05:56:41.592Z,96.83
2019-04-11T05:57:41.535Z,97.20
2019-04-11T05:58:44.299Z,96.83
2019-04-11T05:59:41.200Z,96.64
2019-04-11T06:00:40.958Z,96.40
2019-04-11T06:01:40.394Z,95.93
2019-04-11T06:02:41.573Z,95.93
2019-04-11T06:03:43.196Z,95.83
2019-04-11T06:04:40.623Z,95.36
2019-04-11T06:05:40.827Z,95.74
2019-04-11T06:06:40.651Z,94.60
2019-04-11T06:07:43.604Z,94.70
2019-04-11T06:08:40.225Z,94.13
2019-04-11T06:09:41.608Z,94.42
2019-04-11T06:10:42.576Z,94.42
2019-04-11T06:11:41.190Z,94.32
2019-04-11T06:12:41.323Z,93.94
2019-04-11T06:13:40.665Z,93.70
2019-04-11T06:14:40.081Z,93.61
2019-04-11T06:15:42.834Z,93.89
2019-04-11T06:16:46.381Z,92.85
2019-04-11T06:17:40.719Z,92.28
2019-04-11T06:18:43.823Z,92.09
2019-04-11T06:19:39.964Z,91.90
2019-04-11T06:20:39.966Z,92.09
2019-04-11T06:21:40.186Z,91.81
2019-04-11T06:22:40.158Z,91.52
2019-04-11T06:23:39.869Z,91.33
2019-04-11T06:24:40.612Z,91.05
2019-04-11T06:25:43.190Z,90.34
2019-04-11T06:26:40.802Z,90.34
2019-04-11T06:27:42.173Z,90.53
2019-04-11T06:28:39.757Z,89.77
2019-04-11T06:29:39.725Z,90.05
2019-04-11T06:30:40.164Z,89.39
2019-04-11T06:31:40.394Z,88.10
2019-04-11T06:32:40.262Z,86.72
2019-04-11T06:33:40.644Z,84.83
2019-04-11T06:34:39.717Z,83.26
2019-04-11T06:35:39.968Z,81.12
2019-04-11T06:36:39.567Z,79.25
2019-04-11T06:37:39.543Z,76.88
2019-04-11T06:38:40.687Z,74.39
2019-04-11T06:39:39.827Z,73.06
2019-04-11T06:40:39.473Z,71.47
2019-04-11T06:41:39.450Z,69.51
2019-04-11T06:42:39.425Z,67.89
2019-04-11T06:43:40.429Z,66.40
2019-04-11T06:44:39.755Z,65.96
2019-04-11T06:45:39.742Z,64.81
2019-04-11T06:46:49.631Z,63.60
2019-04-11T06:47:39.315Z,62.84
2019-04-11T06:48:40.043Z,62.27
2019-04-11T06:49:39.369Z,61.92
2019-04-11T06:50:39.647Z,60.49
2019-04-11T06:51:39.860Z,59.31
2019-04-11T06:52:39.205Z,60.08
2019-04-11T06:53:39.983Z,61.22
2019-04-11T06:54:39.311Z,60.81
2019-04-11T06:55:39.230Z,61.32
2019-04-11T06:56:39.120Z,61.22
2019-04-11T06:57:40.334Z,60.94
2019-04-11T06:58:39.464Z,59.82
2019-04-11T06:59:39.051Z,59.63
2019-04-11T07:00:39.152Z,59.44
2019-04-11T07:01:39.012Z,59.09
2019-04-11T07:02:39.024Z,59.28
2019-04-11T07:03:38.969Z,58.42
2019-04-11T07:04:39.941Z,58.14
2019-04-11T07:05:38.929Z,58.33
2019-04-11T07:06:39.839Z,57.85
2019-04-11T07:07:38.931Z,58.14
2019-04-11T07:08:38.874Z,58.42
2019-04-11T07:09:39.443Z,57.82
2019-04-11T07:10:38.829Z,58.20
2019-04-11T07:11:38.808Z,59.44
2019-04-11T07:12:38.801Z,58.94
2019-04-11T07:13:39.326Z,59.89
2019-04-11T07:14:39.709Z,60.65
2019-04-11T07:15:39.789Z,60.36
2019-04-11T07:16:38.719Z,60.84
2019-04-11T07:17:38.700Z,60.91
2019-04-11T07:18:39.861Z,62.24
2019-04-11T07:19:39.394Z,62.34
2019-04-11T07:20:38.640Z,62.52
2019-04-11T07:21:39.691Z,62.52
2019-04-11T07:22:38.965Z,61.76
2019-04-11T07:23:38.586Z,62.24
2019-04-11T07:24:39.038Z,62.43
2019-04-11T07:25:39.526Z,62.49
2019-04-11T07:26:38.533Z,62.59
2019-04-11T07:27:38.661Z,63.42
2019-04-11T07:28:39.370Z,64.37
2019-04-11T07:29:38.479Z,63.80
2019-04-11T07:30:39.567Z,64.47
2019-04-11T07:31:39.616Z,64.84
2019-04-11T07:32:38.898Z,64.18
2019-04-11T07:33:38.409Z,64.47
2019-04-11T07:34:40.014Z,64.28
2019-04-11T07:35:38.374Z,63.80
2019-04-11T07:36:38.512Z,63.80
2019-04-11T07:37:38.728Z,63.23
2019-04-11T07:38:38.815Z,62.21
2019-04-11T07:39:41.378Z,62.30
2019-04-11T07:40:39.533Z,62.49
2019-04-11T07:41:39.154Z,61.73
2019-04-11T07:42:39.113Z,61.35
2019-04-11T07:43:39.081Z,62.30
2019-04-11T07:44:38.592Z,61.10
2019-04-11T07:45:40.215Z,59.79
2019-04-11T07:46:38.665Z,58.36
2019-04-11T07:47:38.253Z,57.98
2019-04-11T07:48:38.174Z,57.70
2019-04-11T07:49:38.125Z,57.50
2019-04-11T07:50:38.110Z,57.50
2019-04-11T07:51:38.639Z,57.60
2019-04-11T07:52:38.074Z,57.70
2019-04-11T07:53:39.359Z,57.43
2019-04-11T07:54:38.975Z,56.48
2019-04-11T07:55:38.697Z,55.21
2019-04-11T07:56:38.008Z,55.41
2019-04-11T07:57:38.393Z,56.01
2019-04-11T07:58:37.981Z,55.28
2019-04-11T07:59:37.955Z,56.68
2019-04-11T08:00:44.095Z,57.86
2019-04-11T08:01:38.248Z,57.70
2019-04-11T08:02:37.900Z,56.48
2019-04-11T08:03:38.009Z,55.50
2019-04-11T08:04:38.672Z,54.64
2019-04-11T08:05:38.861Z,55.26
2019-04-11T08:06:39.038Z,58.08
2019-04-11T08:07:38.059Z,57.95
2019-04-11T08:08:38.885Z,57.53
2019-04-11T08:09:37.780Z,54.45
2019-04-11T08:10:37.770Z,54.49
2019-04-11T08:11:38.046Z,56.09
2019-04-11T08:12:37.731Z,57.20
2019-04-11T08:13:38.821Z,57.93
2019-04-11T08:14:37.696Z,59.07
2019-04-11T08:15:37.767Z,59.61
2019-04-11T08:16:37.662Z,61.32
2019-04-11T08:17:42.355Z,62.46
2019-04-11T08:18:37.625Z,62.75
2019-04-11T08:19:38.633Z,63.42
2019-04-11T08:20:37.587Z,63.51
2019-04-11T08:21:38.507Z,63.60
2019-04-11T08:22:37.552Z,63.99
2019-04-11T08:23:38.053Z,63.70
2019-04-11T08:24:37.518Z,63.32
2019-04-11T08:25:37.651Z,62.65
2019-04-11T08:26:37.984Z,62.08
2019-04-11T08:27:50.070Z,62.27
2019-04-11T08:28:37.439Z,62.12
2019-04-11T08:29:38.203Z,59.58
2019-04-11T08:30:37.403Z,58.30
2019-04-11T08:31:38.300Z,56.24
2019-04-11T08:32:37.980Z,54.74
2019-04-11T08:33:38.424Z,54.38
2019-04-11T08:34:37.597Z,52.69
2019-04-11T08:35:37.305Z,51.86
2019-04-11T08:36:38.011Z,51.12
2019-04-11T08:37:37.894Z,49.78
2019-04-11T08:38:37.306Z,49.11
2019-04-11T08:39:37.436Z,48.80
2019-04-11T08:40:37.741Z,48.28
2019-04-11T08:41:37.981Z,49.40
2019-04-11T08:42:37.947Z,49.66
2019-04-11T08:43:37.492Z,50.68
2019-04-11T08:44:37.140Z,52.40
2019-04-11T08:45:38.122Z,52.59
2019-04-11T08:46:37.349Z,52.78
2019-04-11T08:47:43.844Z,52.64
2019-04-11T08:48:37.262Z,51.54
2019-04-11T08:49:37.584Z,50.69
2019-04-11T08:50:37.022Z,50.12
2019-04-11T08:51:37.004Z,48.11
2019-04-11T08:52:38.176Z,47.32
2019-04-11T08:53:37.221Z,47.99
2019-04-11T08:54:37.637Z,48.16
2019-04-11T08:55:45.628Z,48.16
2019-04-11T08:56:36.913Z,48.25
2019-04-11T08:57:38.064Z,48.71
2019-04-11T08:58:36.872Z,49.08
2019-04-11T08:59:37.777Z,48.63
2019-04-11T09:00:37.991Z,48.25
2019-04-11T09:01:37.923Z,46.99
2019-04-11T09:02:37.378Z,47.25
2019-04-11T09:03:37.807Z,48.18
2019-04-11T09:04:36.768Z,49.42
2019-04-11T09:05:36.747Z,50.82
2019-04-11T09:06:37.086Z,52.18
2019-04-11T09:07:38.018Z,52.30
2019-04-11T09:08:36.697Z,50.63
2019-04-11T09:09:38.008Z,49.23
2019-04-11T09:10:36.911Z,48.25
2019-04-11T09:11:39.178Z,48.28
2019-04-11T09:12:36.614Z,48.07
2019-04-11T09:13:37.614Z,48.32
2019-04-11T09:14:36.577Z,48.04
2019-04-11T09:15:37.054Z,48.39
2019-04-11T09:16:37.461Z,49.16
2019-04-11T09:17:36.702Z,49.42
2019-04-11T09:18:36.558Z,50.18
2019-04-11T09:19:36.482Z,50.09
2019-04-11T09:20:36.468Z,49.61
2019-04-11T09:21:36.448Z,49.90
2019-04-11T09:22:37.349Z,50.09
2019-04-11T09:23:37.595Z,50.56
2019-04-11T09:24:36.828Z,50.85
2019-04-11T09:25:37.036Z,51.04
2019-04-11T09:26:36.352Z,51.70
2019-04-11T09:27:36.582Z,51.45
2019-04-11T09:28:37.565Z,50.07
2019-04-11T09:29:36.298Z,49.11
2019-04-11T09:30:36.832Z,48.44
2019-04-11T09:31:36.260Z,49.02
2019-04-11T09:32:36.247Z,48.16
2019-04-11T09:33:38.047Z,48.07
2019-04-11T09:34:36.209Z,47.47
2019-04-11T09:35:37.338Z,47.25
2019-04-11T09:36:36.902Z,48.37
2019-04-11T09:37:36.156Z,48.56
2019-04-11T09:38:36.134Z,48.18
2019-04-11T09:39:37.160Z,47.99
2019-04-11T09:40:36.255Z,48.06
2019-04-11T09:41:36.525Z,48.16
2019-04-11T09:42:36.553Z,48.25
2019-04-11T09:43:36.052Z,48.44
2019-04-11T09:44:37.801Z,49.20
2019-04-11T09:45:36.004Z,49.11
2019-04-11T09:46:36.607Z,49.58
2019-04-11T09:47:36.246Z,49.96
2019-04-11T09:48:35.947Z,51.49
2019-04-11T09:49:36.192Z,51.58
2019-04-11T09:50:36.432Z,52.53
2019-04-11T09:51:36.106Z,53.67
2019-04-11T09:52:36.754Z,54.35
2019-04-11T09:53:36.670Z,53.49
2019-04-11T09:54:36.549Z,53.30
2019-04-11T09:55:35.812Z,53.30
2019-04-11T09:56:36.385Z,53.30
2019-04-11T09:57:36.570Z,53.42
2019-04-11T09:58:35.799Z,52.87
2019-04-11T09:59:36.911Z,52.52
2019-04-11T10:00:36.753Z,50.80
2019-04-11T10:01:35.700Z,49.47
2019-04-11T10:02:35.679Z,49.08
2019-04-11T10:03:36.641Z,49.28
2019-04-11T10:04:36.022Z,48.90
2019-04-11T10:05:35.625Z,48.52
2019-04-11T10:06:36.721Z,48.68
2019-04-11T10:07:35.622Z,49.54
2019-04-11T10:08:35.568Z,49.44
2019-04-11T10:09:35.800Z,49.23
2019-04-11T10:10:35.532Z,49.42
2019-04-11T10:11:35.512Z,50.09
2019-04-11T10:12:36.097Z,49.99
2019-04-11T10:13:35.610Z,50.09
2019-04-11T10:14:35.475Z,51.32
2019-04-11T10:15:35.613Z,50.37
2019-04-11T10:16:35.913Z,50.18
2019-04-11T10:17:36.023Z,50.35
2019-04-11T10:18:38.694Z,49.80
2019-04-11T10:19:36.034Z,50.66
2019-04-11T10:20:35.344Z,50.56
2019-04-11T10:21:35.322Z,50.46
2019-04-11T10:22:36.180Z,51.23
2019-04-11T10:23:36.592Z,51.32
2019-04-11T10:24:35.269Z,50.56
2019-04-11T10:25:35.337Z,50.66
2019-04-11T10:26:36.143Z,50.94
2019-04-11T10:27:36.326Z,51.61
2019-04-11T10:28:35.548Z,51.42
2019-04-11T10:29:36.255Z,50.97
2019-04-11T10:30:35.154Z,50.30
2019-04-11T10:31:35.138Z,50.49
2019-04-11T10:32:35.157Z,50.97
2019-04-11T10:33:35.241Z,50.11
2019-04-11T10:34:35.438Z,49.08
2019-04-11T10:35:35.056Z,48.71
2019-04-11T10:36:35.059Z,48.71
2019-04-11T10:37:35.903Z,48.13
2019-04-11T10:38:36.168Z,48.32
2019-04-11T10:39:35.561Z,46.99
2019-04-11T10:40:34.968Z,46.80
2019-04-11T10:41:34.947Z,46.34
2019-04-11T10:42:35.047Z,45.56
2019-04-11T10:43:36.203Z,46.23
2019-04-11T10:44:35.916Z,47.28
2019-04-11T10:45:34.875Z,46.80
2019-04-11T10:46:35.476Z,47.08
2019-04-11T10:47:34.836Z,47.68
2019-04-11T10:48:39.764Z,48.04
2019-04-11T10:49:34.802Z,48.92
2019-04-11T10:50:35.983Z,49.30
2019-04-11T10:51:35.853Z,48.80
2019-04-11T10:52:34.747Z,49.18
2019-04-11T10:53:35.383Z,48.99
2019-04-11T10:54:34.711Z,48.99
2019-04-11T10:55:35.702Z,48.32
2019-04-11T10:56:34.800Z,48.32
2019-04-11T10:57:34.654Z,48.04
2019-04-11T10:58:35.140Z,48.23
2019-04-11T10:59:34.620Z,47.44
2019-04-11T11:00:35.578Z,48.49
2019-04-11T11:01:35.852Z,48.97
2019-04-11T11:02:35.717Z,50.11
2019-04-11T11:03:34.548Z,50.21
2019-04-11T11:04:34.792Z,49.99
2019-04-11T11:05:34.681Z,49.90
2019-04-11T11:06:35.754Z,48.75
2019-04-11T11:07:34.995Z,49.04
2019-04-11T11:08:34.455Z,49.04
2019-04-11T11:09:35.581Z,50.37
2019-04-11T11:10:35.440Z,50.66
2019-04-11T11:11:34.604Z,51.14
2019-04-11T11:12:35.133Z,51.04
2019-04-11T11:13:34.361Z,51.42
2019-04-11T11:14:34.569Z,50.27
2019-04-11T11:15:34.323Z,50.75
2019-04-11T11:16:39.391Z,51.14
2019-04-11T11:17:54.886Z,51.42
2019-04-11T11:18:53.872Z,51.04
2019-04-11T11:19:50.068Z,51.61
2019-04-11T11:20:39.261Z,51.70
2019-04-11T11:21:35.499Z,51.42
2019-04-11T11:22:34.912Z,51.51
2019-04-11T11:23:35.297Z,51.89
2019-04-11T11:24:39.059Z,51.89
2019-04-11T11:25:35.088Z,52.63
2019-04-11T11:26:35.479Z,52.92
2019-04-11T11:27:34.758Z,53.87
2019-04-11T11:28:34.340Z,53.49
2019-04-11T11:29:35.028Z,53.77
2019-04-11T11:30:35.290Z,53.67
2019-04-11T11:31:34.155Z,53.49
2019-04-11T11:32:34.012Z,53.30
2019-04-11T11:33:34.152Z,53.49
2019-04-11T11:34:34.723Z,53.67
2019-04-11T11:35:37.186Z,53.20
2019-04-11T11:36:37.464Z,54.13
2019-04-11T11:37:33.907Z,54.69
2019-04-11T11:38:33.889Z,55.93
2019-04-11T11:39:33.878Z,57.07
2019-04-11T11:40:38.410Z,57.26
2019-04-11T11:41:33.828Z,57.74
2019-04-11T11:42:34.472Z,57.93
2019-04-11T11:43:34.969Z,58.12
2019-04-11T11:44:34.932Z,56.98
2019-04-11T11:45:33.751Z,57.45
2019-04-11T11:46:34.153Z,57.26
2019-04-11T11:47:37.963Z,57.55
2019-04-11T11:48:33.693Z,58.22
2019-04-11T11:49:47.314Z,57.45
2019-04-11T11:50:35.004Z,57.45
2019-04-11T11:51:33.636Z,57.65
2019-04-11T11:52:35.024Z,57.93
2019-04-11T11:53:33.601Z,57.65
2019-04-11T11:54:33.572Z,57.93
2019-04-11T11:55:33.594Z,58.31
2019-04-11T11:56:34.003Z,58.22
2019-04-11T11:57:33.511Z,57.55
2019-04-11T11:58:33.493Z,57.65
2019-04-11T11:59:34.461Z,57.74
2019-04-11T12:00:33.466Z,57.84
2019-04-11T12:01:33.663Z,58.09
2019-04-11T12:02:34.761Z,59.17
2019-04-11T12:03:33.392Z,58.95
2019-04-11T12:04:36.015Z,59.17
2019-04-11T12:05:34.496Z,58.85
2019-04-11T12:06:33.432Z,59.05
2019-04-11T12:07:37.058Z,59.23
2019-04-11T12:08:33.291Z,59.64
2019-04-11T12:09:34.244Z,59.23
2019-04-11T12:10:34.016Z,59.17
2019-04-11T12:11:34.404Z,59.36
2019-04-11T12:12:33.209Z,59.64
2019-04-11T12:13:33.189Z,58.88
2019-04-11T12:14:33.169Z,59.64
2019-04-11T12:15:33.151Z,59.64
2019-04-11T12:16:34.546Z,59.80
2019-04-11T12:17:36.164Z,59.74
2019-04-11T12:18:33.088Z,59.74
2019-04-11T12:19:45.337Z,59.45
2019-04-11T12:20:33.050Z,59.23
2019-04-11T12:21:33.026Z,59.42
2019-04-11T12:22:33.006Z,59.71
2019-04-11T12:23:44.637Z,59.33
2019-04-11T12:24:34.308Z,59.55
2019-04-11T12:25:33.449Z,59.52
2019-04-11T12:26:33.845Z,59.55
2019-04-11T12:27:33.038Z,58.69
2019-04-11T12:28:33.465Z,59.71
2019-04-11T12:29:32.860Z,60.66
2019-04-11T12:30:35.366Z,60.47
2019-04-11T12:31:35.583Z,60.41
2019-04-11T12:32:32.801Z,60.41
2019-04-11T12:33:33.127Z,59.83
2019-04-11T12:34:32.760Z,59.17
2019-04-11T12:35:32.736Z,59.07
2019-04-11T12:36:32.718Z,58.79
2019-04-11T12:37:33.658Z,58.59
2019-04-11T12:38:32.676Z,58.59
2019-04-11T12:39:32.656Z,58.40
2019-04-11T12:40:32.636Z,58.50
2019-04-11T12:41:32.678Z,58.98
2019-04-11T12:42:32.595Z,57.55
2019-04-11T12:43:32.573Z,58.69
2019-04-11T12:44:32.563Z,58.88
2019-04-11T12:45:32.533Z,58.98
2019-04-11T12:46:32.512Z,58.59
2019-04-11T12:47:32.503Z,58.98
2019-04-11T12:48:32.472Z,58.79
2019-04-11T12:49:32.450Z,58.98
2019-04-11T12:50:32.430Z,57.93
2019-04-11T12:51:34.374Z,57.84
2019-04-11T12:52:32.392Z,58.69
2019-04-11T12:53:32.368Z,58.03
2019-04-11T12:54:32.348Z,58.88
2019-04-11T12:55:32.332Z,58.98
2019-04-11T12:56:32.309Z,58.88
2019-04-11T12:57:32.288Z,59.36